createdAt,value
2018-10-05T00:04:12.410Z,12.83
2018-10-05T00:09:11.344Z,13.33
2018-10-05T00:14:09.165Z,13.20
2018-10-05T00:19:06.755Z,13.40
2018-10-05T00:29:18.955Z,12.90
2018-10-05T00:34:16.425Z,14.37
2018-10-05T00:39:13.981Z,12.73
2018-10-05T00:44:11.447Z,13.70
2018-10-05T00:49:08.913Z,12.43
2018-10-05T00:54:12.827Z,12.37
2018-10-05T00:59:10.453Z,11.73
2018-10-05T01:04:07.911Z,11.53
2018-10-05T01:09:06.371Z,11.17
2018-10-05T01:14:04.017Z,10.87
2018-10-05T01:19:01.556Z,10.57
2018-10-05T01:24:07.624Z,10.90
2018-10-05T01:29:05.639Z,10.30
2018-10-05T01:34:03.117Z,10.33
2018-10-05T01:39:00.596Z,10.83
2018-10-05T01:43:58.067Z,9.73
2018-10-05T01:48:55.554Z,9.97
2018-10-05T01:54:00.457Z,10.67
2018-10-05T01:58:58.058Z,9.53
2018-10-05T02:03:55.546Z,9.87
2018-10-05T02:08:53.016Z,9.00
2018-10-05T02:13:50.519Z,9.50
2018-10-05T02:18:47.983Z,9.17
2018-10-05T02:23:48.062Z,9.20
2018-10-05T02:28:48.091Z,8.43
2018-10-05T02:33:47.571Z,10.00
2018-10-05T02:38:46.700Z,8.67
2018-10-05T02:43:44.180Z,9.67
2018-10-05T02:48:41.670Z,7.93
2018-10-05T02:53:39.161Z,8.90
2018-10-05T02:58:36.617Z,9.43
2018-10-05T03:03:34.273Z,8.60
2018-10-05T03:08:31.762Z,8.43
2018-10-05T03:13:29.235Z,7.67
2018-10-05T03:18:26.729Z,6.87
2018-10-05T03:23:24.207Z,8.13
2018-10-05T03:28:21.719Z,8.43
2018-10-05T03:33:19.195Z,7.73
2018-10-05T03:38:16.757Z,7.53
2018-10-05T03:43:14.252Z,7.10
2018-10-05T03:48:11.814Z,8.20
2018-10-05T03:53:09.313Z,8.17
2018-10-05T03:58:06.800Z,6.57
2018-10-05T04:03:04.299Z,8.23
2018-10-05T04:08:01.786Z,8.40
2018-10-05T04:12:59.244Z,7.97
2018-10-05T04:17:56.753Z,8.60
2018-10-05T04:22:54.261Z,9.20
2018-10-05T04:27:51.774Z,8.60
2018-10-05T04:32:49.288Z,7.27
2018-10-05T04:37:46.787Z,8.33
2018-10-05T04:42:44.336Z,7.03
2018-10-05T04:47:41.807Z,7.03
2018-10-05T04:52:39.274Z,8.80
2018-10-05T04:57:36.785Z,6.90
2018-10-05T05:02:34.328Z,7.97
2018-10-05T05:07:31.941Z,7.17
2018-10-05T05:12:29.477Z,7.60
2018-10-05T05:17:26.997Z,7.70
2018-10-05T05:22:24.509Z,6.67
2018-10-05T05:27:22.036Z,7.00
2018-10-05T05:32:19.533Z,7.97
2018-10-05T05:37:17.081Z,8.80
2018-10-05T05:42:14.703Z,7.10
2018-10-05T05:47:15.073Z,7.73
2018-10-05T05:52:12.605Z,7.80
2018-10-05T05:57:10.142Z,8.93
2018-10-05T06:02:07.724Z,8.30
2018-10-05T06:07:05.262Z,6.73
2018-10-05T06:12:02.814Z,5.90
2018-10-05T06:17:00.314Z,5.63
2018-10-05T06:21:57.924Z,5.53
2018-10-05T06:26:55.369Z,5.07
2018-10-05T06:31:52.885Z,4.63
2018-10-05T06:36:50.428Z,3.93
2018-10-05T06:41:47.952Z,4.63
2018-10-05T06:46:45.511Z,3.80
2018-10-05T06:51:43.096Z,4.07
2018-10-05T06:56:40.681Z,4.33
2018-10-05T07:01:38.447Z,4.43
2018-10-05T07:06:35.915Z,3.83
2018-10-05T07:11:33.500Z,4.90
2018-10-05T07:16:31.090Z,3.90
2018-10-05T07:21:28.650Z,4.47
2018-10-05T07:26:26.152Z,5.00
2018-10-05T07:31:23.654Z,4.33
2018-10-05T07:36:21.158Z,3.83
2018-10-05T07:41:18.719Z,4.40
2018-10-05T07:46:16.226Z,4.27
2018-10-05T07:51:13.739Z,5.47
2018-10-05T07:56:11.311Z,4.90
2018-10-05T08:01:08.831Z,4.97
2018-10-05T08:06:06.384Z,4.93
2018-10-05T08:11:03.899Z,4.73
2018-10-05T08:16:01.384Z,4.60
2018-10-05T08:20:58.951Z,4.97
2018-10-05T08:25:56.442Z,3.83
2018-10-05T08:30:53.949Z,4.50
2018-10-05T08:35:51.464Z,3.73
2018-10-05T08:40:49.027Z,4.30
2018-10-05T08:45:46.589Z,3.20
2018-10-05T08:50:44.075Z,3.73
2018-10-05T08:55:41.636Z,3.27
2018-10-05T09:00:39.163Z,4.97
2018-10-05T09:05:36.738Z,3.80
2018-10-05T09:10:34.263Z,3.53
2018-10-05T09:15:31.773Z,3.40
2018-10-05T09:20:29.284Z,3.23
2018-10-05T09:25:26.825Z,3.00
2018-10-05T09:30:24.322Z,2.90
2018-10-05T09:35:21.832Z,2.73
2018-10-05T09:40:19.359Z,3.70
2018-10-05T09:45:17.005Z,3.20
2018-10-05T09:50:14.454Z,3.17
2018-10-05T09:55:11.996Z,3.80
2018-10-05T10:00:14.056Z,2.30
2018-10-05T10:05:11.564Z,3.57
2018-10-05T10:10:09.070Z,2.80
2018-10-05T10:15:06.615Z,2.40
2018-10-05T10:20:04.192Z,3.47
2018-10-05T10:25:01.793Z,2.73
2018-10-05T10:29:59.298Z,2.60
2018-10-05T10:34:56.804Z,2.97
2018-10-05T10:39:54.365Z,2.37
2018-10-05T10:44:51.886Z,3.40
2018-10-05T10:49:49.361Z,2.60
2018-10-05T10:54:47.997Z,2.50
2018-10-05T10:59:45.499Z,2.23
2018-10-05T11:04:44.286Z,1.90
2018-10-05T11:09:41.827Z,1.90
2018-10-05T11:14:39.387Z,2.07
2018-10-05T11:19:36.964Z,1.50
2018-10-05T11:24:35.651Z,1.80
2018-10-05T11:29:33.149Z,1.60
2018-10-05T11:34:30.703Z,1.87
2018-10-05T11:39:28.237Z,1.47
2018-10-05T11:44:25.826Z,2.07
2018-10-05T11:49:23.319Z,2.07
2018-10-05T11:54:29.289Z,1.80
2018-10-05T11:59:30.642Z,2.00
2018-10-05T12:04:28.463Z,1.60
2018-10-05T12:09:25.982Z,1.70
2018-10-05T12:14:23.668Z,2.03
2018-10-05T12:19:23.415Z,2.27
2018-10-05T12:24:25.077Z,1.90
2018-10-05T12:29:35.407Z,2.03
2018-10-05T12:34:37.422Z,2.43
2018-10-05T12:39:39.423Z,1.53
2018-10-05T12:44:40.253Z,1.97
2018-10-05T12:49:46.991Z,2.30
2018-10-05T12:54:47.712Z,1.87
2018-10-05T12:59:49.351Z,1.83
2018-10-05T13:04:49.195Z,2.00
2018-10-05T13:09:58.391Z,3.30
2018-10-05T13:14:56.037Z,2.37
2018-10-05T13:19:53.543Z,4.10
2018-10-05T13:24:52.798Z,3.93
2018-10-05T13:29:50.317Z,2.80
2018-10-05T13:34:47.865Z,2.37
2018-10-05T13:39:45.427Z,2.00
2018-10-05T13:44:42.897Z,2.60
2018-10-05T13:49:40.416Z,3.10
2018-10-05T13:54:39.091Z,2.53
2018-10-05T13:59:36.651Z,2.30
2018-10-05T14:04:34.142Z,1.50
2018-10-05T14:09:31.610Z,3.17
2018-10-05T14:14:29.120Z,1.80
2018-10-05T14:19:26.639Z,2.17
2018-10-05T14:24:25.337Z,3.20
2018-10-05T14:29:22.841Z,1.93
2018-10-05T14:34:20.323Z,2.50
2018-10-05T14:39:17.841Z,2.40
2018-10-05T14:44:15.664Z,2.70
2018-10-05T14:49:13.170Z,2.43
2018-10-05T14:54:23.133Z,2.83
2018-10-05T14:59:20.713Z,2.33
2018-10-05T15:04:18.240Z,3.40
2018-10-05T15:09:15.725Z,2.63
2018-10-05T15:14:13.230Z,1.90
2018-10-05T15:19:10.731Z,2.10
2018-10-05T15:24:12.984Z,2.47
2018-10-05T15:29:10.668Z,2.90
2018-10-05T15:34:08.168Z,2.13
2018-10-05T15:39:06.944Z,2.10
2018-10-05T15:44:04.721Z,2.20
2018-10-05T15:49:02.263Z,1.93
2018-10-05T15:54:05.150Z,1.80
2018-10-05T15:59:02.729Z,2.03
2018-10-05T16:04:00.209Z,3.30
2018-10-05T16:08:58.079Z,1.97
2018-10-05T16:13:55.633Z,2.80
2018-10-05T16:18:53.121Z,2.80
2018-10-05T16:23:56.590Z,2.60
2018-10-05T16:28:54.222Z,2.57
2018-10-05T16:33:51.717Z,2.60
2018-10-05T16:38:49.205Z,3.13
2018-10-05T16:43:46.750Z,2.63
2018-10-05T16:48:44.352Z,3.67
2018-10-05T16:53:43.339Z,2.67
2018-10-05T16:58:41.040Z,2.30
2018-10-05T17:03:38.533Z,2.43
2018-10-05T17:08:39.744Z,2.73
2018-10-05T17:13:37.361Z,2.40
2018-10-05T17:18:34.913Z,2.30
2018-10-05T17:23:32.472Z,2.17
2018-10-05T17:28:29.980Z,2.40
2018-10-05T17:33:27.510Z,2.53
2018-10-05T17:38:25.038Z,2.40
2018-10-05T17:43:22.560Z,2.40
2018-10-05T17:48:23.328Z,2.40
2018-10-05T17:53:22.037Z,2.20
2018-10-05T17:58:19.606Z,3.47
2018-10-05T18:03:17.095Z,2.93
2018-10-05T18:08:21.936Z,2.50
2018-10-05T18:13:24.276Z,3.00
2018-10-05T18:18:22.979Z,2.50
2018-10-05T18:23:20.541Z,2.73
2018-10-05T18:28:20.374Z,2.73
2018-10-05T18:33:19.666Z,3.10
2018-10-05T18:38:17.969Z,3.20
2018-10-05T18:43:15.433Z,3.37
2018-10-05T18:48:13.629Z,2.73
2018-10-05T18:53:11.250Z,2.60
2018-10-05T18:58:08.740Z,3.30
2018-10-05T19:03:06.258Z,3.10
2018-10-05T19:08:03.773Z,3.37
2018-10-05T19:13:06.444Z,3.10
2018-10-05T19:18:03.954Z,3.23
2018-10-05T19:23:01.409Z,3.30
2018-10-05T19:27:58.938Z,3.30
2018-10-05T19:32:56.399Z,3.17
2018-10-05T19:37:53.922Z,3.10
2018-10-05T19:42:52.721Z,4.33
2018-10-05T19:47:50.303Z,3.60
2018-10-05T19:52:47.963Z,4.13
2018-10-05T19:57:45.460Z,3.30
2018-10-05T20:02:43.043Z,4.93
2018-10-05T20:07:40.530Z,4.23
2018-10-05T20:12:38.080Z,4.10
2018-10-05T20:17:35.607Z,4.10
2018-10-05T20:22:33.245Z,4.37
2018-10-05T20:27:30.800Z,3.97
2018-10-05T20:32:28.302Z,4.00
2018-10-05T20:37:26.051Z,4.67
2018-10-05T20:42:23.443Z,5.07
2018-10-05T20:47:20.933Z,4.10
2018-10-05T20:52:18.442Z,4.87
2018-10-05T20:57:15.929Z,4.67
2018-10-05T21:02:13.418Z,4.80
2018-10-05T21:07:10.990Z,4.73
2018-10-05T21:12:08.445Z,4.90
2018-10-05T21:17:06.174Z,5.80
2018-10-05T21:22:03.652Z,5.27
2018-10-05T21:27:01.193Z,5.80
2018-10-05T21:31:59.115Z,5.80
2018-10-05T21:36:56.590Z,8.00
2018-10-05T21:41:54.063Z,7.50
2018-10-05T21:46:51.532Z,7.40
2018-10-05T21:51:49.114Z,8.30
2018-10-05T21:56:46.587Z,8.70
2018-10-05T22:01:44.052Z,6.90
2018-10-05T22:06:41.540Z,6.50
2018-10-05T22:11:39.335Z,6.10
2018-10-05T22:16:36.830Z,6.57
2018-10-05T22:21:34.358Z,7.60
2018-10-05T22:26:31.843Z,5.90
2018-10-05T22:31:29.418Z,7.40
2018-10-05T22:36:26.907Z,5.80
2018-10-05T22:41:24.408Z,6.70
2018-10-05T22:46:21.873Z,5.90
2018-10-05T22:51:19.389Z,5.87
2018-10-05T22:56:16.972Z,6.13
2018-10-05T23:01:14.453Z,4.90
2018-10-05T23:06:11.905Z,5.63
2018-10-05T23:11:09.369Z,5.80
2018-10-05T23:16:07.130Z,5.43
2018-10-05T23:21:04.687Z,5.33
2018-10-05T23:26:02.155Z,5.80
2018-10-05T23:30:59.609Z,5.97
2018-10-05T23:35:57.138Z,5.13
2018-10-05T23:40:55.662Z,4.97
2018-10-05T23:45:53.316Z,5.80
2018-10-05T23:50:50.804Z,5.83
2018-10-05T23:55:48.430Z,5.50
